createdAt,value
2019-01-23T00:01:30.571Z,137.70
2019-01-23T00:04:00.072Z,119.27
2019-01-23T00:06:29.565Z,139.27
2019-01-23T00:08:59.059Z,134.43
2019-01-23T00:11:33.379Z,118.30
2019-01-23T00:14:03.085Z,103.40
2019-01-23T00:16:32.585Z,113.50
2019-01-23T00:19:02.093Z,117.77
2019-01-23T00:21:32.131Z,93.17
2019-01-23T00:24:01.613Z,105.57
2019-01-23T00:26:31.125Z,112.10
2019-01-23T00:29:00.690Z,104.83
2019-01-23T00:31:30.168Z,106.70
2019-01-23T00:33:59.651Z,97.33
2019-01-23T00:36:29.136Z,93.43
2019-01-23T00:38:58.615Z,81.60
2019-01-23T00:41:28.104Z,92.93
2019-01-23T00:44:08.087Z,79.30
2019-01-23T00:46:37.584Z,81.30
2019-01-23T00:49:07.063Z,69.70
2019-01-23T00:51:36.562Z,76.10
2019-01-23T00:54:06.413Z,68.97
2019-01-23T00:56:36.780Z,72.53
2019-01-23T00:59:06.294Z,73.93
2019-01-23T01:01:35.767Z,77.57
2019-01-23T01:04:05.480Z,68.97
2019-01-23T01:06:34.982Z,62.73
2019-01-23T01:09:08.467Z,74.70
2019-01-23T01:11:43.424Z,63.87
2019-01-23T01:14:13.307Z,62.87
2019-01-23T01:16:42.791Z,63.17
2019-01-23T01:19:12.275Z,53.30
2019-01-23T01:21:41.759Z,74.37
2019-01-23T01:24:11.555Z,61.73
2019-01-23T01:26:41.054Z,68.47
2019-01-23T01:29:10.523Z,57.60
2019-01-23T01:31:39.979Z,68.13
2019-01-23T01:34:09.479Z,64.97
2019-01-23T01:36:38.965Z,56.20
2019-01-23T01:39:09.101Z,29.73
2019-01-23T01:41:38.577Z,67.77
2019-01-23T01:44:08.065Z,74.80
2019-01-23T01:46:37.551Z,62.13
2019-01-23T01:49:07.051Z,71.47
2019-01-23T01:51:36.529Z,60.10
2019-01-23T01:54:06.268Z,69.73
2019-01-23T01:56:47.521Z,65.30
2019-01-23T01:59:16.988Z,71.70
2019-01-23T02:01:46.485Z,71.00
2019-01-23T02:04:17.043Z,74.23
2019-01-23T02:06:46.519Z,66.13
2019-01-23T02:09:16.041Z,64.20
2019-01-23T02:11:52.339Z,67.03
2019-01-23T02:14:21.844Z,71.90
2019-01-23T02:16:51.342Z,82.80
2019-01-23T02:19:20.816Z,64.97
2019-01-23T02:21:50.282Z,76.77
2019-01-23T02:24:19.756Z,82.87
2019-01-23T02:26:49.246Z,69.47
2019-01-23T02:29:18.707Z,78.50
2019-01-23T02:31:48.202Z,70.83
2019-01-23T02:34:17.688Z,74.90
2019-01-23T02:36:47.172Z,75.13
2019-01-23T02:39:16.679Z,65.57
2019-01-23T02:41:46.165Z,71.47
2019-01-23T02:44:16.611Z,62.63
2019-01-23T02:46:46.097Z,62.87
2019-01-23T02:49:15.599Z,84.17
2019-01-23T02:51:45.083Z,58.60
2019-01-23T02:54:14.818Z,67.77
2019-01-23T02:56:44.327Z,79.93
2019-01-23T02:59:17.484Z,64.57
2019-01-23T03:01:45.072Z,72.50
2019-01-23T03:04:14.549Z,57.90
2019-01-23T03:06:44.036Z,61.20
2019-01-23T03:09:13.551Z,64.53
2019-01-23T03:11:43.480Z,70.03
2019-01-23T03:14:12.976Z,50.43
2019-01-23T03:16:42.487Z,62.60
2019-01-23T03:19:12.099Z,59.33
2019-01-23T03:21:41.584Z,60.33
2019-01-23T03:24:11.323Z,58.73
2019-01-23T03:26:40.795Z,59.77
2019-01-23T03:29:10.276Z,57.37
2019-01-23T03:31:39.759Z,53.27
2019-01-23T03:34:09.219Z,49.43
2019-01-23T03:36:38.729Z,56.40
2019-01-23T03:39:08.456Z,62.43
2019-01-23T03:41:38.030Z,46.10
2019-01-23T03:44:07.500Z,54.47
2019-01-23T03:46:36.967Z,53.40
2019-01-23T03:49:06.459Z,44.60
2019-01-23T03:51:35.926Z,36.73
2019-01-23T03:54:05.523Z,43.30
2019-01-23T03:56:35.045Z,45.17
2019-01-23T03:59:04.672Z,49.57
2019-01-23T04:01:34.157Z,44.23
2019-01-23T04:04:03.659Z,44.10
2019-01-23T04:06:33.169Z,50.77
2019-01-23T04:09:02.737Z,52.07
2019-01-23T04:11:36.787Z,40.17
2019-01-23T04:14:06.270Z,53.80
2019-01-23T04:16:35.710Z,48.90
2019-01-23T04:19:05.154Z,52.10
2019-01-23T04:21:34.610Z,46.90
2019-01-23T04:24:04.063Z,43.07
2019-01-23T04:26:33.518Z,50.23
2019-01-23T04:29:02.981Z,42.97
2019-01-23T04:31:32.405Z,48.23
2019-01-23T04:34:01.851Z,44.10
2019-01-23T04:36:31.312Z,51.87
2019-01-23T04:39:00.745Z,53.53
2019-01-23T04:41:31.777Z,42.60
2019-01-23T04:44:01.237Z,45.90
2019-01-23T04:46:30.873Z,34.03
2019-01-23T04:49:00.321Z,46.87
2019-01-23T04:51:42.566Z,49.50
2019-01-23T04:54:17.410Z,50.27
2019-01-23T04:56:47.807Z,47.50
2019-01-23T04:59:17.225Z,56.37
2019-01-23T05:01:46.659Z,52.93
2019-01-23T05:04:16.090Z,55.13
2019-01-23T05:06:45.497Z,59.50
2019-01-23T05:09:14.960Z,50.00
2019-01-23T05:11:44.610Z,57.63
2019-01-23T05:14:15.043Z,49.90
2019-01-23T05:16:44.450Z,45.60
2019-01-23T05:19:13.872Z,52.53
2019-01-23T05:21:43.308Z,38.07
2019-01-23T05:24:12.808Z,46.80
2019-01-23T05:26:42.245Z,47.13
2019-01-23T05:29:11.708Z,37.87
2019-01-23T05:31:41.191Z,49.33
2019-01-23T05:34:10.646Z,48.93
2019-01-23T05:36:40.096Z,54.63
2019-01-23T05:39:09.556Z,53.73
2019-01-23T05:41:38.993Z,53.53
2019-01-23T05:44:08.426Z,54.13
2019-01-23T05:46:37.855Z,46.40
2019-01-23T05:49:07.434Z,56.13
2019-01-23T05:51:36.948Z,57.67
2019-01-23T05:54:06.565Z,62.60
2019-01-23T05:56:36.274Z,55.00
2019-01-23T05:59:05.710Z,57.83
2019-01-23T06:01:36.218Z,49.43
2019-01-23T06:04:05.705Z,59.23
2019-01-23T06:06:35.432Z,57.77
2019-01-23T06:09:07.934Z,56.03
2019-01-23T06:11:37.921Z,58.10
2019-01-23T06:14:07.389Z,49.20
2019-01-23T06:16:36.832Z,59.10
2019-01-23T06:19:06.316Z,54.17
2019-01-23T06:21:35.745Z,48.67
2019-01-23T06:24:05.233Z,47.07
2019-01-23T06:26:34.625Z,55.20
2019-01-23T06:29:04.056Z,47.10
2019-01-23T06:31:33.495Z,59.13
2019-01-23T06:34:03.028Z,46.30
2019-01-23T06:36:32.991Z,50.10
2019-01-23T06:39:02.805Z,54.27
2019-01-23T06:41:32.231Z,55.80
2019-01-23T06:44:01.846Z,49.47
2019-01-23T06:46:31.307Z,49.27
2019-01-23T06:49:00.770Z,51.23
2019-01-23T06:51:30.211Z,50.33
2019-01-23T06:53:59.880Z,45.00
2019-01-23T06:56:29.314Z,58.93
2019-01-23T06:58:58.787Z,55.70
2019-01-23T07:01:28.269Z,57.23
2019-01-23T07:03:57.857Z,56.47
2019-01-23T07:06:27.322Z,65.77
2019-01-23T07:08:56.806Z,59.23
2019-01-23T07:11:26.281Z,59.97
2019-01-23T07:13:56.771Z,62.47
2019-01-23T07:16:26.413Z,63.57
2019-01-23T07:18:55.837Z,67.33
2019-01-23T07:21:25.286Z,59.07
2019-01-23T07:23:54.734Z,59.33
2019-01-23T07:26:24.209Z,60.80
2019-01-23T07:28:53.677Z,66.40
2019-01-23T07:31:23.168Z,64.80
2019-01-23T07:33:52.758Z,62.27
2019-01-23T07:36:23.495Z,61.97
2019-01-23T07:38:53.326Z,63.57
2019-01-23T07:41:22.827Z,60.60
2019-01-23T07:43:52.279Z,67.60
2019-01-23T07:46:21.738Z,65.50
2019-01-23T07:48:52.177Z,63.67
2019-01-23T07:51:21.678Z,67.37
2019-01-23T07:53:51.666Z,69.63
2019-01-23T07:56:21.099Z,65.03
2019-01-23T07:58:50.542Z,81.57
2019-01-23T08:01:20.026Z,66.23
2019-01-23T08:03:49.510Z,66.90
2019-01-23T08:06:18.953Z,69.70
2019-01-23T08:08:48.399Z,66.53
2019-01-23T08:11:17.892Z,64.97
2019-01-23T08:13:47.466Z,63.93
2019-01-23T08:16:19.153Z,69.63
2019-01-23T08:18:48.604Z,69.20
2019-01-23T08:21:18.043Z,76.80
2019-01-23T08:23:47.467Z,62.07
2019-01-23T08:26:17.160Z,75.33
2019-01-23T08:28:46.632Z,77.33
2019-01-23T08:31:16.071Z,76.50
2019-01-23T08:33:45.506Z,74.87
2019-01-23T08:36:15.035Z,80.17
2019-01-23T08:38:44.612Z,80.53
2019-01-23T08:41:14.031Z,68.93
2019-01-23T08:43:43.478Z,80.27
2019-01-23T08:46:12.929Z,78.77
2019-01-23T08:48:42.447Z,70.17
2019-01-23T08:51:11.918Z,78.57
2019-01-23T08:53:41.678Z,72.20
2019-01-23T08:56:11.157Z,67.10
2019-01-23T08:58:40.582Z,65.27
2019-01-23T09:01:10.059Z,77.17
2019-01-23T09:03:39.497Z,78.37
2019-01-23T09:06:08.953Z,64.60
2019-01-23T09:08:38.397Z,71.57
2019-01-23T09:11:07.837Z,69.33
2019-01-23T09:13:37.270Z,66.40
2019-01-23T09:16:06.825Z,69.67
2019-01-23T09:18:36.546Z,64.83
2019-01-23T09:21:06.138Z,68.27
2019-01-23T09:23:35.570Z,67.70
2019-01-23T09:26:05.065Z,71.57
2019-01-23T09:28:34.497Z,66.47
2019-01-23T09:31:44.697Z,72.33
2019-01-23T09:34:36.296Z,56.73
2019-01-23T09:37:35.187Z,64.77
2019-01-23T09:40:16.805Z,68.43
2019-01-23T09:43:42.993Z,57.60
2019-01-23T09:46:54.143Z,62.10
2019-01-23T09:50:08.506Z,63.93
2019-01-23T09:53:12.287Z,68.03
2019-01-23T09:55:41.799Z,74.30
2019-01-23T09:58:11.605Z,64.07
2019-01-23T10:00:41.045Z,60.57
2019-01-23T10:03:10.510Z,63.97
2019-01-23T10:05:39.992Z,67.03
2019-01-23T10:08:09.448Z,55.83
2019-01-23T10:10:38.873Z,61.37
2019-01-23T10:13:08.326Z,60.90
2019-01-23T10:15:46.456Z,68.53
2019-01-23T10:18:16.985Z,56.90
2019-01-23T10:20:46.678Z,64.67
2019-01-23T10:23:16.094Z,62.33
2019-01-23T10:25:45.588Z,63.80
2019-01-23T10:28:15.007Z,63.37
2019-01-23T10:30:44.443Z,62.17
2019-01-23T10:33:13.878Z,59.93
2019-01-23T10:35:43.577Z,65.67
2019-01-23T10:38:13.496Z,65.17
2019-01-23T10:40:43.123Z,60.97
2019-01-23T10:43:12.583Z,63.13
2019-01-23T10:45:41.993Z,64.80
2019-01-23T10:48:11.411Z,61.17
2019-01-23T10:50:40.874Z,63.13
2019-01-23T10:53:11.774Z,61.57
2019-01-23T10:55:41.309Z,60.17
2019-01-23T10:58:10.730Z,59.50
2019-01-23T11:00:40.693Z,60.67
2019-01-23T11:03:10.366Z,54.33
2019-01-23T11:05:40.348Z,67.47
2019-01-23T11:08:10.831Z,58.10
2019-01-23T11:10:40.356Z,56.90
2019-01-23T11:13:10.060Z,56.87
2019-01-23T11:15:39.482Z,49.83
2019-01-23T11:18:08.918Z,58.20
2019-01-23T11:20:38.334Z,51.87
2019-01-23T11:23:07.761Z,55.53
2019-01-23T11:25:37.183Z,59.07
2019-01-23T11:28:06.594Z,57.67
2019-01-23T11:30:36.013Z,52.93
2019-01-23T11:33:05.496Z,54.00
2019-01-23T11:35:35.045Z,48.77
2019-01-23T11:38:04.837Z,49.83
2019-01-23T11:40:34.253Z,59.37
2019-01-23T11:43:03.729Z,50.20
2019-01-23T11:45:33.174Z,50.60
2019-01-23T11:48:02.645Z,57.57
2019-01-23T11:50:32.061Z,56.13
2019-01-23T11:53:01.503Z,53.07
2019-01-23T11:55:30.962Z,55.97
2019-01-23T11:58:12.907Z,70.63
2019-01-23T12:00:42.349Z,62.00
2019-01-23T12:03:11.838Z,49.47
2019-01-23T12:05:42.182Z,52.43
2019-01-23T12:08:11.915Z,50.43
2019-01-23T12:10:41.354Z,62.90
2019-01-23T12:13:10.766Z,54.47
2019-01-23T12:15:40.918Z,47.47
2019-01-23T12:18:10.734Z,46.63
2019-01-23T12:20:40.394Z,45.17
2019-01-23T12:23:09.829Z,45.33
2019-01-23T12:25:39.238Z,38.47
2019-01-23T12:28:08.674Z,31.27
2019-01-23T12:30:38.102Z,20.27
2019-01-23T12:33:07.553Z,25.63
2019-01-23T12:35:37.174Z,23.37
2019-01-23T12:38:06.605Z,24.93
2019-01-23T12:40:36.030Z,23.23
2019-01-23T12:43:05.494Z,28.03
2019-01-23T12:45:34.923Z,28.20
2019-01-23T12:48:04.462Z,36.33
2019-01-23T12:50:33.915Z,35.37
2019-01-23T12:53:03.385Z,30.20
2019-01-23T12:55:32.870Z,28.90
2019-01-23T12:58:02.287Z,36.33
2019-01-23T13:00:31.732Z,28.93
2019-01-23T13:03:01.269Z,40.13
2019-01-23T13:05:30.687Z,36.33
2019-01-23T13:08:00.172Z,33.80
2019-01-23T13:10:30.117Z,33.50
2019-01-23T13:12:59.580Z,35.13
2019-01-23T13:15:29.021Z,39.43
2019-01-23T13:17:58.484Z,36.10
2019-01-23T13:20:27.918Z,34.03
2019-01-23T13:22:57.357Z,41.80
2019-01-23T13:25:28.370Z,45.37
2019-01-23T13:28:00.028Z,39.30
2019-01-23T13:30:29.482Z,38.57
2019-01-23T13:32:58.906Z,44.87
2019-01-23T13:35:34.259Z,44.57
2019-01-23T13:38:05.140Z,42.27
2019-01-23T13:40:36.182Z,43.17
2019-01-23T13:43:06.905Z,41.30
2019-01-23T13:45:36.361Z,43.40
2019-01-23T13:48:07.458Z,43.50
2019-01-23T13:50:37.109Z,44.93
2019-01-23T13:53:06.597Z,46.03
2019-01-23T13:55:36.118Z,51.77
2019-01-23T13:58:05.551Z,45.73
2019-01-23T14:00:40.317Z,44.43
2019-01-23T14:03:10.163Z,46.33
2019-01-23T14:05:40.671Z,44.47
2019-01-23T14:08:10.302Z,43.37
2019-01-23T14:10:39.725Z,43.90
2019-01-23T14:13:10.173Z,41.93
2019-01-23T14:15:40.246Z,39.83
2019-01-23T14:18:09.866Z,45.50
2019-01-23T14:20:39.299Z,39.87
2019-01-23T14:23:08.725Z,44.50
2019-01-23T14:25:38.158Z,45.40
2019-01-23T14:28:07.637Z,43.47
2019-01-23T14:30:39.353Z,46.47
2019-01-23T14:33:08.839Z,41.30
2019-01-23T14:35:40.362Z,37.70
2019-01-23T14:38:09.791Z,40.10
2019-01-23T14:40:39.224Z,44.13
2019-01-23T14:43:08.664Z,43.43
2019-01-23T14:45:38.097Z,43.17
2019-01-23T14:48:07.586Z,38.77
2019-01-23T14:50:37.038Z,48.80
2019-01-23T14:53:06.513Z,46.03
2019-01-23T14:55:35.959Z,46.87
2019-01-23T14:58:05.413Z,46.47
2019-01-23T15:00:34.859Z,49.47
2019-01-23T15:03:04.374Z,47.60
2019-01-23T15:05:33.801Z,48.10
2019-01-23T15:08:03.302Z,47.13
2019-01-23T15:10:32.778Z,49.07
2019-01-23T15:13:02.266Z,56.10
2019-01-23T15:15:31.769Z,49.13
2019-01-23T15:18:01.226Z,56.63
2019-01-23T15:20:35.890Z,45.27
2019-01-23T15:23:05.407Z,55.63
2019-01-23T15:25:34.938Z,47.03
2019-01-23T15:28:04.508Z,57.43
2019-01-23T15:30:34.016Z,57.40
2019-01-23T15:33:03.628Z,49.93
2019-01-23T15:35:33.443Z,54.27
2019-01-23T15:38:03.045Z,54.80
2019-01-23T15:40:34.913Z,55.47
2019-01-23T15:43:05.945Z,49.30
2019-01-23T15:45:47.360Z,58.17
2019-01-23T15:48:16.775Z,56.73
2019-01-23T15:50:46.389Z,54.40
2019-01-23T15:53:17.805Z,54.63
2019-01-23T15:55:47.673Z,53.60
2019-01-23T15:58:17.139Z,53.17
2019-01-23T16:00:46.565Z,51.83
2019-01-23T16:03:16.009Z,35.27
2019-01-23T16:05:45.599Z,40.00
2019-01-23T16:08:15.053Z,48.67
2019-01-23T16:10:44.644Z,54.07
2019-01-23T16:13:42.426Z,56.27
2019-01-23T16:16:16.181Z,48.50
2019-01-23T16:18:45.726Z,50.63
2019-01-23T16:21:15.272Z,57.97
2019-01-23T16:23:44.753Z,60.47
2019-01-23T16:26:14.248Z,56.97
2019-01-23T16:28:43.777Z,61.07
2019-01-23T16:31:13.238Z,65.67
2019-01-23T16:33:42.661Z,56.97
2019-01-23T16:36:12.313Z,68.77
2019-01-23T16:38:41.786Z,57.00
2019-01-23T16:41:11.493Z,67.43
2019-01-23T16:43:42.658Z,67.53
2019-01-23T16:46:12.093Z,58.90
2019-01-23T16:48:41.591Z,63.07
2019-01-23T16:51:11.113Z,59.73
2019-01-23T16:53:40.592Z,57.63
2019-01-23T16:56:10.358Z,60.33
2019-01-23T16:58:41.262Z,59.23
2019-01-23T17:01:10.908Z,62.50
2019-01-23T17:03:40.476Z,66.63
2019-01-23T17:06:09.957Z,65.83
2019-01-23T17:08:39.427Z,61.17
2019-01-23T17:11:09.120Z,66.57
2019-01-23T17:13:38.583Z,63.77
2019-01-23T17:16:11.514Z,66.93
2019-01-23T17:18:47.039Z,71.57
2019-01-23T17:48:55.292Z,67.23
2019-01-23T17:51:26.205Z,56.50
2019-01-23T17:53:56.863Z,55.20
2019-01-23T17:56:32.302Z,60.30
2019-01-23T17:59:07.884Z,47.77
2019-01-23T18:01:37.374Z,55.50
2019-01-23T18:04:06.869Z,46.33
2019-01-23T18:06:36.333Z,38.43
2019-01-23T18:09:08.618Z,45.23
2019-01-23T18:11:38.306Z,35.27
2019-01-23T18:14:07.830Z,29.50
2019-01-23T18:16:37.340Z,33.07
2019-01-23T18:19:07.214Z,30.07
2019-01-23T18:21:36.651Z,31.00
2019-01-23T18:24:06.098Z,28.40
2019-01-23T18:26:37.630Z,34.17
2019-01-23T18:29:07.750Z,29.30
2019-01-23T18:31:50.774Z,30.73
2019-01-23T18:38:13.629Z,27.23
2019-01-23T18:41:39.919Z,40.53
2019-01-23T18:44:21.720Z,33.77
2019-01-23T18:47:52.085Z,32.30
2019-01-23T18:51:00.172Z,34.13
2019-01-23T18:53:29.599Z,17.43
2019-01-23T18:55:59.261Z,29.03
2019-01-23T18:58:29.821Z,28.17
2019-01-23T19:00:59.261Z,34.97
2019-01-23T19:03:29.099Z,33.90
2019-01-23T19:05:58.578Z,36.53
2019-01-23T19:08:28.109Z,37.83
2019-01-23T19:10:57.582Z,29.07
2019-01-23T19:13:27.054Z,34.93
2019-01-23T19:15:56.659Z,34.90
2019-01-23T19:18:26.064Z,35.43
2019-01-23T19:20:55.486Z,34.37
2019-01-23T19:23:24.937Z,32.77
2019-01-23T19:25:54.386Z,31.00
2019-01-23T19:28:25.008Z,28.63
2019-01-23T19:30:54.435Z,30.07
2019-01-23T19:33:23.878Z,31.70
2019-01-23T19:35:53.535Z,30.93
2019-01-23T19:38:23.126Z,33.60
2019-01-23T19:40:52.618Z,31.10
2019-01-23T19:43:22.570Z,32.00
2019-01-23T19:45:52.511Z,31.77
2019-01-23T19:48:21.970Z,35.90
2019-01-23T19:50:51.413Z,31.83
2019-01-23T19:53:20.868Z,30.87
2019-01-23T19:55:50.541Z,34.10
2019-01-23T19:58:20.234Z,41.27
2019-01-23T20:00:49.707Z,28.00
2019-01-23T20:03:20.566Z,32.40
2019-01-23T20:05:50.566Z,36.37
2019-01-23T20:08:20.050Z,38.53
2019-01-23T20:10:49.522Z,34.43
2019-01-23T20:13:18.973Z,38.47
2019-01-23T20:15:48.424Z,46.53
2019-01-23T20:18:17.846Z,44.27
2019-01-23T20:20:47.475Z,39.13
2019-01-23T20:23:16.938Z,46.73
2019-01-23T20:25:46.383Z,42.47
2019-01-23T20:28:15.815Z,45.53
2019-01-23T20:30:45.425Z,49.57
2019-01-23T20:33:14.873Z,47.77
2019-01-23T20:35:50.850Z,51.67
2019-01-23T20:38:20.678Z,49.00
2019-01-23T20:40:50.396Z,49.43
2019-01-23T20:43:19.860Z,41.87
2019-01-23T20:45:49.297Z,48.43
2019-01-23T20:48:18.722Z,42.57
2019-01-23T20:50:48.186Z,51.97
2019-01-23T20:53:18.570Z,53.20
2019-01-23T20:55:48.146Z,55.67
2019-01-23T20:58:19.851Z,45.30
2019-01-23T21:00:49.538Z,40.53
2019-01-23T21:03:19.074Z,41.67
2019-01-23T21:05:48.516Z,45.50
2019-01-23T21:08:17.941Z,36.77
2019-01-23T21:10:47.391Z,46.03
2019-01-23T21:13:16.827Z,42.60
2019-01-23T21:15:46.243Z,41.70
2019-01-23T21:18:15.710Z,42.97
2019-01-23T21:20:45.357Z,42.83
2019-01-23T21:23:16.279Z,38.77
2019-01-23T21:25:45.722Z,49.67
2019-01-23T21:28:15.201Z,54.87
2019-01-23T21:30:44.666Z,49.37
2019-01-23T21:33:14.189Z,60.37
2019-01-23T21:35:43.641Z,52.60
2019-01-23T21:38:13.111Z,71.43
2019-01-23T21:40:43.523Z,57.43
2019-01-23T21:43:12.981Z,61.40
2019-01-23T21:45:42.498Z,58.33
2019-01-23T21:48:11.947Z,57.97
2019-01-23T21:50:41.442Z,62.97
2019-01-23T21:53:10.918Z,48.70
2019-01-23T21:55:40.376Z,48.43
2019-01-23T21:58:09.810Z,52.70
2019-01-23T22:00:41.958Z,51.03
2019-01-23T22:03:12.002Z,58.10
2019-01-23T22:05:41.519Z,48.33
2019-01-23T22:08:11.896Z,49.57
2019-01-23T22:10:41.331Z,48.07
2019-01-23T22:13:10.772Z,48.97
2019-01-23T22:15:40.215Z,49.43
2019-01-23T22:18:09.859Z,38.50
2019-01-23T22:20:39.298Z,53.13
2019-01-23T22:23:09.790Z,54.33
2019-01-23T22:25:39.246Z,50.70
2019-01-23T22:28:08.692Z,54.33
2019-01-23T22:30:38.113Z,50.60
2019-01-23T22:33:07.525Z,46.03
2019-01-23T22:35:37.001Z,50.73
2019-01-23T22:38:06.443Z,40.77
2019-01-23T22:40:35.941Z,43.60
2019-01-23T22:43:05.532Z,44.87
2019-01-23T22:45:34.982Z,47.63
2019-01-23T22:48:04.960Z,47.83
2019-01-23T22:50:34.674Z,40.60
2019-01-23T22:53:04.233Z,44.20
2019-01-23T22:55:33.701Z,43.50
2019-01-23T23:00:58.117Z,42.07
2019-01-23T23:03:27.780Z,45.23
2019-01-23T23:05:57.192Z,38.23
2019-01-23T23:08:26.618Z,47.60
2019-01-23T23:10:56.072Z,44.90
2019-01-23T23:13:25.515Z,43.57
2019-01-23T23:15:54.933Z,44.10
2019-01-23T23:18:24.354Z,48.03
2019-01-23T23:20:54.070Z,45.67
2019-01-23T23:23:23.527Z,49.43
2019-01-23T23:25:52.956Z,51.33
2019-01-23T23:28:26.038Z,47.73
2019-01-23T23:30:53.564Z,50.40
2019-01-23T23:33:23.028Z,43.57
2019-01-23T23:35:52.492Z,52.27
2019-01-23T23:38:21.926Z,49.97
2019-01-23T23:40:51.366Z,50.63
2019-01-23T23:43:20.787Z,45.43
2019-01-23T23:45:50.222Z,47.80
2019-01-23T23:48:19.688Z,39.80
2019-01-23T23:50:49.304Z,45.00
2019-01-23T23:53:18.759Z,48.87
2019-01-23T23:55:48.180Z,48.00
2019-01-23T23:58:17.639Z,50.30
